createdAt,value
2023-03-05T00:01:29.395Z,4.80
2023-03-05T00:03:57.722Z,5.00
2023-03-05T00:06:28.236Z,4.90
2023-03-05T00:08:58.380Z,4.60
2023-03-05T00:11:30.236Z,4.70
2023-03-05T00:13:58.497Z,4.80
2023-03-05T00:16:28.504Z,4.70
2023-03-05T00:18:57.504Z,4.60
2023-03-05T00:21:53.752Z,4.60
2023-03-05T00:24:20.838Z,4.80
2023-03-05T00:26:48.182Z,4.70
2023-03-05T00:29:30.800Z,4.60
2023-03-05T00:31:58.770Z,4.60
2023-03-05T00:34:28.076Z,4.50
2023-03-05T00:36:55.174Z,4.50
2023-03-05T00:39:22.722Z,4.50
2023-03-05T00:41:50.753Z,4.80
2023-03-05T00:44:17.905Z,4.60
2023-03-05T00:46:45.016Z,4.50
2023-03-05T00:49:12.065Z,4.50
2023-03-05T00:51:39.321Z,4.50
2023-03-05T00:54:06.638Z,4.50
2023-03-05T00:56:34.179Z,4.60
2023-03-05T00:59:01.240Z,4.60
2023-03-05T01:01:29.282Z,4.60
2023-03-05T01:03:57.574Z,4.60
2023-03-05T01:06:24.612Z,4.70
2023-03-05T01:08:51.641Z,4.60
2023-03-05T01:11:18.938Z,4.60
2023-03-05T01:13:46.003Z,4.60
2023-03-05T01:16:13.111Z,4.60
2023-03-05T01:18:41.042Z,4.60
2023-03-05T01:21:08.546Z,4.60
2023-03-05T01:23:37.552Z,4.60
2023-03-05T01:26:05.744Z,4.60
2023-03-05T01:28:33.253Z,4.60
2023-03-05T01:31:00.283Z,4.80
2023-03-05T01:33:27.337Z,4.70
2023-03-05T01:35:54.429Z,4.70
2023-03-05T01:38:21.542Z,4.70
2023-03-05T01:40:48.575Z,4.80
2023-03-05T01:43:28.385Z,4.60
2023-03-05T01:46:13.494Z,4.70
2023-03-05T01:48:44.934Z,4.70
2023-03-05T01:51:12.284Z,4.70
2023-03-05T01:53:40.122Z,4.50
2023-03-05T01:56:07.308Z,4.60
2023-03-05T01:58:34.349Z,4.50
2023-03-05T02:01:02.696Z,4.60
2023-03-05T02:03:29.867Z,4.60
2023-03-05T02:05:56.959Z,4.90
2023-03-05T02:08:25.035Z,4.70
2023-03-05T02:10:56.442Z,4.70
2023-03-05T02:13:35.890Z,4.70
2023-03-05T02:16:03.328Z,4.60
2023-03-05T02:18:30.830Z,4.60
2023-03-05T02:20:57.741Z,4.60
2023-03-05T02:23:29.140Z,4.50
2023-03-05T02:25:56.727Z,4.50
2023-03-05T02:28:31.320Z,4.40
2023-03-05T02:30:58.583Z,4.50
2023-03-05T02:33:25.906Z,4.40
2023-03-05T02:35:53.229Z,4.30
2023-03-05T02:38:21.763Z,4.20
2023-03-05T02:40:48.769Z,4.20
2023-03-05T02:43:15.848Z,4.00
2023-03-05T02:45:42.927Z,3.90
2023-03-05T02:48:10.005Z,3.90
2023-03-05T02:50:39.812Z,3.80
2023-03-05T02:53:07.039Z,3.60
2023-03-05T02:55:34.540Z,3.80
2023-03-05T02:58:01.577Z,3.60
2023-03-05T03:00:28.876Z,3.70
2023-03-05T03:02:56.277Z,3.80
2023-03-05T03:05:23.287Z,3.80
2023-03-05T03:07:51.177Z,3.70
2023-03-05T03:10:18.576Z,3.80
2023-03-05T03:12:48.658Z,3.70
2023-03-05T03:15:17.358Z,3.70
2023-03-05T03:17:44.615Z,3.60
2023-03-05T03:20:16.654Z,3.70
2023-03-05T03:22:45.916Z,3.70
2023-03-05T03:25:19.116Z,3.60
2023-03-05T03:27:46.192Z,3.60
2023-03-05T03:30:14.037Z,3.80
2023-03-05T03:32:41.398Z,3.70
2023-03-05T03:35:09.262Z,3.80
2023-03-05T03:37:36.474Z,3.80
2023-03-05T03:40:05.805Z,3.80
2023-03-05T03:42:33.371Z,3.80
2023-03-05T03:45:02.388Z,3.80
2023-03-05T03:47:30.932Z,3.80
2023-03-05T03:49:59.040Z,3.90
2023-03-05T03:52:26.677Z,3.80
2023-03-05T03:54:55.761Z,3.80
2023-03-05T03:57:22.958Z,3.80
2023-03-05T03:59:51.104Z,3.90
2023-03-05T04:02:18.578Z,3.90
2023-03-05T04:04:45.793Z,3.80
2023-03-05T04:07:13.117Z,3.80
2023-03-05T04:09:40.108Z,3.70
2023-03-05T04:12:07.704Z,3.80
2023-03-05T04:14:35.194Z,3.80
2023-03-05T04:17:02.293Z,3.70
2023-03-05T04:19:30.753Z,3.60
2023-03-05T04:21:59.417Z,3.70
2023-03-05T04:24:26.753Z,3.60
2023-03-05T04:26:54.096Z,3.60
2023-03-05T04:29:21.195Z,3.70
2023-03-05T04:31:48.176Z,3.80
2023-03-05T04:34:15.408Z,3.80
2023-03-05T04:36:42.388Z,3.70
2023-03-05T04:39:09.429Z,3.80
2023-03-05T04:41:36.714Z,4.00
2023-03-05T04:44:04.140Z,3.90
2023-03-05T04:46:31.210Z,3.80
2023-03-05T04:48:59.139Z,3.80
2023-03-05T04:51:26.331Z,3.80
2023-03-05T04:53:53.294Z,3.80
2023-03-05T04:56:20.981Z,3.70
2023-03-05T04:58:48.145Z,3.60
2023-03-05T05:01:15.335Z,3.40
2023-03-05T05:03:42.330Z,3.50
2023-03-05T05:06:09.354Z,3.40
2023-03-05T05:08:37.139Z,3.40
2023-03-05T05:11:07.145Z,3.40
2023-03-05T05:13:35.178Z,3.40
2023-03-05T05:16:02.496Z,3.30
2023-03-05T05:18:29.545Z,3.40
2023-03-05T05:20:56.607Z,3.50
2023-03-05T05:23:23.735Z,3.30
2023-03-05T05:26:02.282Z,3.30
2023-03-05T05:28:29.811Z,3.30
2023-03-05T05:30:57.277Z,3.20
2023-03-05T05:33:24.529Z,3.40
2023-03-05T05:35:52.189Z,3.30
2023-03-05T05:38:20.027Z,3.30
2023-03-05T05:40:46.982Z,3.20
2023-03-05T05:43:14.444Z,3.10
2023-03-05T05:45:41.553Z,3.20
2023-03-05T05:48:08.711Z,3.40
2023-03-05T05:50:35.742Z,3.60
2023-03-05T05:53:02.847Z,3.50
2023-03-05T05:55:29.816Z,3.50
2023-03-05T05:57:56.788Z,3.80
2023-03-05T06:00:24.137Z,3.80
2023-03-05T06:02:51.253Z,3.80
2023-03-05T06:05:18.280Z,3.70
2023-03-05T06:07:45.488Z,3.70
2023-03-05T06:10:12.733Z,3.70
2023-03-05T06:12:40.131Z,3.70
2023-03-05T06:15:08.108Z,3.70
2023-03-05T06:17:35.310Z,3.70
2023-03-05T06:20:02.436Z,3.70
2023-03-05T06:22:29.587Z,3.70
2023-03-05T06:24:56.551Z,3.80
2023-03-05T06:27:23.497Z,3.80
2023-03-05T06:29:54.408Z,3.70
2023-03-05T06:32:21.690Z,3.70
2023-03-05T06:34:49.508Z,3.90
2023-03-05T06:37:16.966Z,3.60
2023-03-05T06:39:44.292Z,3.70
2023-03-05T06:42:11.382Z,3.70
2023-03-05T06:44:41.986Z,3.80
2023-03-05T06:47:10.607Z,3.70
2023-03-05T06:49:39.329Z,3.90
2023-03-05T06:52:10.288Z,3.70
2023-03-05T06:54:37.371Z,3.70
2023-03-05T06:57:04.848Z,4.00
2023-03-05T06:59:31.904Z,3.80
2023-03-05T07:01:59.002Z,3.80
2023-03-05T07:04:26.290Z,3.80
2023-03-05T07:06:53.660Z,3.80
2023-03-05T07:09:20.637Z,3.90
2023-03-05T07:11:47.698Z,4.10
2023-03-05T07:14:14.880Z,4.00
2023-03-05T07:16:42.215Z,4.00
2023-03-05T07:19:11.087Z,4.00
2023-03-05T07:21:39.905Z,4.10
2023-03-05T07:24:08.744Z,4.10
2023-03-05T07:26:36.347Z,4.20
2023-03-05T07:29:03.989Z,4.20
2023-03-05T07:31:32.219Z,4.20
2023-03-05T07:34:02.067Z,4.30
2023-03-05T07:36:30.813Z,4.30
2023-03-05T07:38:58.131Z,4.40
2023-03-05T07:41:25.233Z,4.40
2023-03-05T07:43:54.730Z,4.50
2023-03-05T07:46:28.906Z,4.60
2023-03-05T07:48:56.632Z,4.50
2023-03-05T07:51:25.802Z,4.50
2023-03-05T07:53:55.324Z,4.60
2023-03-05T07:56:35.590Z,4.60
2023-03-05T07:59:07.321Z,4.60
2023-03-05T08:01:35.396Z,4.70
2023-03-05T08:04:05.001Z,4.70
2023-03-05T08:06:32.546Z,4.80
2023-03-05T08:09:00.642Z,4.90
2023-03-05T08:11:28.754Z,4.90
2023-03-05T08:13:58.118Z,4.90
2023-03-05T08:16:26.420Z,4.90
2023-03-05T08:18:58.191Z,4.80
2023-03-05T08:21:38.053Z,4.90
2023-03-05T08:24:08.060Z,5.00
2023-03-05T08:26:38.628Z,5.00
2023-03-05T08:29:09.758Z,5.00
2023-03-05T08:31:37.560Z,5.00
2023-03-05T08:34:05.769Z,5.10
2023-03-05T08:36:32.897Z,5.10
2023-03-05T08:39:00.483Z,5.20
2023-03-05T08:41:27.920Z,5.20
2023-03-05T08:43:55.145Z,5.10
2023-03-05T08:46:22.277Z,5.10
2023-03-05T08:48:49.348Z,5.20
2023-03-05T08:51:20.313Z,5.30
2023-03-05T08:53:48.041Z,5.30
2023-03-05T08:56:15.988Z,5.40
2023-03-05T08:58:43.383Z,5.40
2023-03-05T09:01:11.155Z,5.40
2023-03-05T09:03:38.620Z,5.40
2023-03-05T09:06:09.626Z,5.40
2023-03-05T09:08:36.798Z,5.30
2023-03-05T09:11:07.367Z,5.30
2023-03-05T09:13:35.129Z,5.30
2023-03-05T09:16:07.196Z,5.30
2023-03-05T09:18:36.823Z,5.30
2023-03-05T09:21:09.595Z,5.30
2023-03-05T09:23:36.688Z,5.30
2023-03-05T09:26:07.975Z,5.30
2023-03-05T09:28:35.030Z,5.30
2023-03-05T09:31:04.856Z,5.40
2023-03-05T09:33:33.131Z,5.40
2023-03-05T09:36:01.056Z,5.50
2023-03-05T09:38:29.236Z,5.50
2023-03-05T09:41:19.385Z,5.60
2023-03-05T09:44:17.184Z,5.50
2023-03-05T09:46:52.011Z,5.50
2023-03-05T09:49:37.477Z,5.50
2023-03-05T09:52:24.006Z,5.40
2023-03-05T09:54:57.372Z,5.50
2023-03-05T09:57:41.113Z,5.30
2023-03-05T10:00:50.935Z,5.30
2023-03-05T10:03:57.595Z,5.30
2023-03-05T10:06:51.085Z,5.40
2023-03-05T10:09:57.386Z,5.40
2023-03-05T10:12:42.671Z,5.50
2023-03-05T10:15:21.488Z,5.40
2023-03-05T10:18:27.110Z,5.40
2023-03-05T10:21:30.735Z,5.40
2023-03-05T10:24:10.353Z,5.40
2023-03-05T10:27:06.203Z,5.40
2023-03-05T10:29:49.506Z,5.40
2023-03-05T10:32:50.546Z,5.40
2023-03-05T10:35:42.849Z,5.50
2023-03-05T10:38:48.189Z,5.60
2023-03-05T10:41:40.242Z,5.60
2023-03-05T10:44:27.313Z,5.70
2023-03-05T10:46:58.984Z,5.50
2023-03-05T10:49:34.044Z,5.70
2023-03-05T10:52:32.776Z,5.60
2023-03-05T10:55:00.036Z,5.70
2023-03-05T10:57:32.237Z,5.70
2023-03-05T11:00:26.309Z,5.80
2023-03-05T11:03:06.759Z,5.90
2023-03-05T11:05:52.532Z,6.00
2023-03-05T11:08:36.820Z,6.00
2023-03-05T11:11:17.881Z,5.90
2023-03-05T11:14:03.870Z,6.00
2023-03-05T11:16:34.565Z,6.00
2023-03-05T11:19:25.092Z,6.10
2023-03-05T11:22:23.084Z,6.10
2023-03-05T11:25:18.345Z,6.10
2023-03-05T11:27:56.147Z,6.10
2023-03-05T11:30:29.364Z,6.10
2023-03-05T11:33:22.641Z,6.20
2023-03-05T11:35:52.542Z,6.30
2023-03-05T11:38:24.585Z,6.20
2023-03-05T11:40:54.550Z,6.20
2023-03-05T11:46:24.815Z,6.30
2023-03-05T11:48:55.073Z,6.30
2023-03-05T11:51:39.375Z,6.30
2023-03-05T11:54:14.489Z,6.20
2023-03-05T11:56:44.613Z,6.30
2023-03-05T11:59:20.950Z,6.30
2023-03-05T12:01:55.002Z,6.30
2023-03-05T12:04:23.991Z,6.20
2023-03-05T12:07:00.908Z,6.20
2023-03-05T12:09:44.208Z,6.30
2023-03-05T12:12:28.764Z,6.30
2023-03-05T12:15:35.077Z,5.60
2023-03-05T12:18:42.371Z,5.90
2023-03-05T12:21:41.271Z,6.20
2023-03-05T12:24:25.408Z,6.30
2023-03-05T12:26:53.518Z,6.10
2023-03-05T12:29:51.072Z,6.20
2023-03-05T12:32:35.157Z,6.20
2023-03-05T12:35:15.742Z,6.40
2023-03-05T12:37:45.713Z,6.40
2023-03-05T12:40:30.694Z,6.50
2023-03-05T12:43:05.778Z,6.50
2023-03-05T12:45:52.932Z,6.50
2023-03-05T12:48:19.909Z,6.50
2023-03-05T12:50:52.900Z,6.50
2023-03-05T12:53:21.369Z,6.30
2023-03-05T12:56:20.121Z,6.30
2023-03-05T12:58:55.708Z,6.20
2023-03-05T13:01:42.456Z,6.20
2023-03-05T13:04:24.097Z,6.20
2023-03-05T13:07:16.192Z,6.20
2023-03-05T13:09:57.363Z,6.20
2023-03-05T13:12:30.183Z,6.10
2023-03-05T13:15:07.275Z,6.00
2023-03-05T13:17:52.436Z,6.00
2023-03-05T13:20:40.622Z,6.00
2023-03-05T13:23:26.595Z,6.00
2023-03-05T13:26:15.724Z,6.00
2023-03-05T13:29:03.465Z,6.10
2023-03-05T13:31:31.380Z,5.90
2023-03-05T13:34:47.161Z,6.00
2023-03-05T13:37:31.801Z,6.00
2023-03-05T13:40:01.049Z,6.10
2023-03-05T13:42:34.907Z,6.10
2023-03-05T13:45:28.805Z,6.00
2023-03-05T13:48:03.215Z,6.00
2023-03-05T13:50:40.363Z,5.90
2023-03-05T13:53:30.755Z,5.90
2023-03-05T13:56:07.779Z,5.90
2023-03-05T13:58:54.919Z,5.90
2023-03-05T14:01:32.906Z,5.90
2023-03-05T14:04:22.221Z,5.90
2023-03-05T14:07:06.939Z,5.90
2023-03-05T14:09:39.999Z,5.90
2023-03-05T14:12:44.039Z,5.90
2023-03-05T14:15:27.226Z,5.90
2023-03-05T14:18:15.649Z,5.80
2023-03-05T14:21:09.036Z,5.70
2023-03-05T14:23:37.994Z,5.80
2023-03-05T14:26:19.777Z,5.80
2023-03-05T14:29:13.056Z,5.70
2023-03-05T14:32:05.280Z,5.70
2023-03-05T14:34:42.283Z,5.70
2023-03-05T14:37:29.044Z,5.70
2023-03-05T14:40:08.537Z,5.70
2023-03-05T14:42:39.399Z,5.70
2023-03-05T14:45:17.772Z,5.70
2023-03-05T14:47:45.863Z,5.80
2023-03-05T14:50:39.173Z,5.80
2023-03-05T14:53:16.350Z,5.70
2023-03-05T14:55:44.936Z,5.70
2023-03-05T14:58:21.793Z,5.70
2023-03-05T15:00:51.201Z,5.70
2023-03-05T15:03:20.444Z,5.70
2023-03-05T15:05:51.787Z,5.70
2023-03-05T15:08:31.081Z,5.70
2023-03-05T15:10:59.370Z,5.70
2023-03-05T15:13:27.234Z,5.70
2023-03-05T15:15:54.900Z,5.70
2023-03-05T15:18:23.814Z,5.60
2023-03-05T15:20:55.020Z,5.60
2023-03-05T15:23:22.053Z,5.60
2023-03-05T15:25:49.761Z,5.60
2023-03-05T15:28:17.268Z,5.60
2023-03-05T15:30:47.328Z,5.50
2023-03-05T15:33:17.079Z,5.50
2023-03-05T15:35:44.846Z,5.40
2023-03-05T15:38:12.970Z,5.40
2023-03-05T15:40:40.481Z,5.40
2023-03-05T15:43:07.737Z,5.40
2023-03-05T15:45:34.866Z,5.40
2023-03-05T15:48:02.036Z,5.30
2023-03-05T15:50:29.208Z,5.30
2023-03-05T15:52:56.520Z,5.30
2023-03-05T15:55:24.040Z,5.20
2023-03-05T15:57:53.012Z,5.10
2023-03-05T16:00:31.131Z,5.10
2023-03-05T16:02:58.418Z,5.10
2023-03-05T16:05:26.952Z,5.00
2023-03-05T16:07:55.329Z,5.00
2023-03-05T16:10:29.120Z,5.00
2023-03-05T16:13:06.533Z,5.00
2023-03-05T16:15:35.265Z,5.00
2023-03-05T16:18:07.053Z,4.90
2023-03-05T16:20:36.478Z,4.90
2023-03-05T16:23:05.908Z,4.90
2023-03-05T16:25:33.547Z,4.90
2023-03-05T16:28:00.789Z,4.90
2023-03-05T16:30:29.608Z,4.90
2023-03-05T16:32:56.801Z,5.00
2023-03-05T16:35:24.014Z,5.00
2023-03-05T16:37:51.763Z,5.00
2023-03-05T16:40:19.517Z,4.90
2023-03-05T16:42:46.931Z,4.80
2023-03-05T16:45:14.155Z,4.90
2023-03-05T16:47:41.485Z,4.80
2023-03-05T16:50:10.706Z,4.80
2023-03-05T16:52:38.120Z,4.90
2023-03-05T16:55:06.209Z,4.90
2023-03-05T16:57:33.347Z,4.90
2023-03-05T17:00:02.591Z,4.80
2023-03-05T17:02:29.757Z,4.90
2023-03-05T17:04:57.881Z,4.80
2023-03-05T17:07:26.614Z,4.80
2023-03-05T17:09:54.357Z,4.80
2023-03-05T17:12:22.422Z,4.70
2023-03-05T17:14:49.547Z,4.70
2023-03-05T17:17:16.605Z,4.60
2023-03-05T17:19:43.899Z,4.60
2023-03-05T17:22:12.740Z,4.60
2023-03-05T17:24:42.962Z,4.80
2023-03-05T17:27:10.844Z,4.60
2023-03-05T17:29:37.883Z,4.60
2023-03-05T17:32:05.720Z,4.50
2023-03-05T17:34:36.691Z,4.50
2023-03-05T17:37:05.907Z,4.50
2023-03-05T17:39:51.214Z,4.50
2023-03-05T17:42:30.837Z,4.50
2023-03-05T17:44:59.289Z,4.50
2023-03-05T17:47:26.587Z,4.50
2023-03-05T17:49:53.654Z,4.50
2023-03-05T17:52:21.223Z,4.50
2023-03-05T17:54:50.436Z,4.50
2023-03-05T17:57:17.558Z,4.40
2023-03-05T17:59:44.789Z,4.40
2023-03-05T18:02:12.817Z,4.30
2023-03-05T18:04:41.543Z,4.40
2023-03-05T18:07:08.679Z,4.40
2023-03-05T18:09:35.812Z,4.40
2023-03-05T18:12:02.931Z,4.40
2023-03-05T18:14:29.973Z,4.50
2023-03-05T18:16:59.232Z,4.50
2023-03-05T18:19:26.876Z,4.50
2023-03-05T18:21:54.069Z,4.50
2023-03-05T18:24:21.225Z,4.50
2023-03-05T18:26:48.881Z,4.60
2023-03-05T18:29:18.538Z,4.60
2023-03-05T18:31:46.462Z,4.80
2023-03-05T18:34:13.638Z,4.60
2023-03-05T18:36:40.674Z,4.60
2023-03-05T18:39:07.793Z,4.70
2023-03-05T18:41:34.760Z,4.60
2023-03-05T18:44:01.901Z,4.60
2023-03-05T18:46:28.955Z,4.50
2023-03-05T18:48:55.997Z,4.50
2023-03-05T18:51:24.605Z,4.60
2023-03-05T18:53:54.958Z,4.50
2023-03-05T18:56:22.321Z,4.50
2023-03-05T18:58:49.996Z,4.50
2023-03-05T19:01:19.052Z,4.50
2023-03-05T19:03:48.995Z,4.40
2023-03-05T19:06:17.868Z,4.50
2023-03-05T19:08:45.806Z,4.50
2023-03-05T19:11:21.087Z,4.50
2023-03-05T19:13:50.489Z,4.40
2023-03-05T19:16:21.829Z,4.40
2023-03-05T19:19:24.616Z,4.40
2023-03-05T19:21:59.867Z,4.40
2023-03-05T19:24:30.104Z,4.40
2023-03-05T19:27:01.173Z,4.30
2023-03-05T19:29:33.151Z,4.30
2023-03-05T19:32:00.192Z,4.40
2023-03-05T19:34:27.638Z,4.40
2023-03-05T19:36:55.130Z,4.40
2023-03-05T19:39:22.332Z,4.30
2023-03-05T19:41:49.600Z,4.30
2023-03-05T19:44:16.785Z,4.30
2023-03-05T19:46:43.829Z,4.30
2023-03-05T19:49:11.059Z,4.30
2023-03-05T19:51:40.458Z,4.20
2023-03-05T19:54:07.750Z,4.20
2023-03-05T19:56:39.802Z,4.10
2023-03-05T19:59:07.713Z,4.00
2023-03-05T20:01:35.918Z,4.00
2023-03-05T20:04:05.495Z,4.00
2023-03-05T20:06:34.311Z,4.00
2023-03-05T20:09:01.320Z,4.10
2023-03-05T20:11:28.806Z,4.10
2023-03-05T20:13:56.744Z,4.10
2023-03-05T20:16:31.401Z,4.20
2023-03-05T20:18:59.727Z,4.20
2023-03-05T20:21:34.791Z,4.20
2023-03-05T20:24:09.940Z,4.20
2023-03-05T20:26:39.729Z,4.30
2023-03-05T20:29:08.026Z,4.30
2023-03-05T20:31:37.396Z,4.30
2023-03-05T20:34:11.484Z,4.40
2023-03-05T20:36:39.265Z,4.30
2023-03-05T20:39:07.138Z,4.30
2023-03-05T20:41:36.929Z,4.30
2023-03-05T20:44:04.774Z,4.20
2023-03-05T20:49:12.069Z,4.30
2023-03-05T20:51:39.380Z,4.30
2023-03-05T20:54:13.208Z,4.30
2023-03-05T20:56:40.165Z,4.30
2023-03-05T20:59:08.977Z,4.30
2023-03-05T21:01:39.402Z,4.20
2023-03-05T21:04:06.982Z,4.20
2023-03-05T21:06:36.839Z,4.20
2023-03-05T21:09:04.315Z,4.20
2023-03-05T21:11:32.217Z,4.20
2023-03-05T21:13:59.536Z,4.40
2023-03-05T21:16:28.062Z,4.20
2023-03-05T21:18:57.371Z,4.20
2023-03-05T21:21:25.188Z,4.20
2023-03-05T21:23:53.469Z,4.10
2023-03-05T21:26:21.251Z,4.10
2023-03-05T21:28:48.556Z,4.10
2023-03-05T21:31:19.844Z,4.10
2023-03-05T21:33:47.068Z,4.10
2023-03-05T21:36:18.637Z,4.10
2023-03-05T21:38:47.677Z,4.10
2023-03-05T21:41:15.492Z,4.10
2023-03-05T21:43:42.852Z,4.10
2023-03-05T21:46:11.148Z,4.20
2023-03-05T21:48:38.416Z,4.20
2023-03-05T21:52:15.262Z,4.20
2023-03-05T21:54:43.026Z,4.20
2023-03-05T21:57:11.857Z,4.20
2023-03-05T21:59:42.749Z,4.10
2023-03-05T22:02:18.791Z,4.10
2023-03-05T22:04:46.917Z,4.10
2023-03-05T22:07:16.104Z,4.10
2023-03-05T22:09:43.259Z,4.00
2023-03-05T22:12:57.181Z,4.00
2023-03-05T22:15:24.610Z,4.00
2023-03-05T22:17:51.622Z,3.90
2023-03-05T22:20:18.986Z,3.90
2023-03-05T22:22:49.212Z,4.00
2023-03-05T22:25:17.145Z,4.00
2023-03-05T22:27:45.314Z,4.00
2023-03-05T22:30:14.058Z,4.00
2023-03-05T22:32:41.115Z,4.00
2023-03-05T22:35:13.415Z,3.90
2023-03-05T22:37:41.708Z,3.90
2023-03-05T22:40:14.105Z,3.90
2023-03-05T22:42:41.751Z,3.80
2023-03-05T22:45:09.754Z,3.70
2023-03-05T22:47:36.902Z,3.70
2023-03-05T22:50:05.466Z,3.80
2023-03-05T22:52:32.718Z,3.70
2023-03-05T22:55:03.086Z,3.60
2023-03-05T22:57:30.431Z,3.60
2023-03-05T22:59:57.595Z,3.50
2023-03-05T23:02:24.770Z,3.50
2023-03-05T23:05:00.427Z,3.70
2023-03-05T23:07:31.969Z,3.60
2023-03-05T23:10:09.091Z,3.60
2023-03-05T23:12:39.135Z,3.60
2023-03-05T23:15:10.905Z,3.50
2023-03-05T23:17:38.222Z,3.60
2023-03-05T23:20:10.306Z,3.60
2023-03-05T23:22:39.680Z,3.50
2023-03-05T23:25:07.551Z,3.50
2023-03-05T23:27:34.626Z,3.60
2023-03-05T23:30:17.756Z,3.60
2023-03-05T23:33:16.633Z,3.60
2023-03-05T23:35:51.119Z,3.60
2023-03-05T23:38:18.492Z,3.60
2023-03-05T23:40:51.571Z,3.60
2023-03-05T23:43:19.580Z,3.60
2023-03-05T23:45:49.437Z,3.60
2023-03-05T23:48:17.653Z,3.60
2023-03-05T23:50:47.785Z,3.50
2023-03-05T23:53:22.082Z,3.50
2023-03-05T23:55:49.826Z,3.40
2023-03-05T23:58:19.117Z,3.50
